createdAt,value
2017-08-03T00:01:46.619Z,4.47
2017-08-03T00:03:49.747Z,5.10
2017-08-03T00:05:52.887Z,4.00
2017-08-03T00:07:56.253Z,4.33
2017-08-03T00:10:00.125Z,4.70
2017-08-03T00:12:03.826Z,4.37
2017-08-03T00:14:07.226Z,4.47
2017-08-03T00:16:10.636Z,4.43
2017-08-03T00:18:14.082Z,4.57
2017-08-03T00:20:17.448Z,3.90
2017-08-03T00:22:20.588Z,4.13
2017-08-03T00:24:24.044Z,4.10
2017-08-03T00:26:27.701Z,3.60
2017-08-03T00:28:31.332Z,4.40
2017-08-03T00:30:35.068Z,4.27
2017-08-03T00:32:38.646Z,3.80
2017-08-03T00:34:42.109Z,4.40
2017-08-03T00:36:45.512Z,3.70
2017-08-03T00:38:48.870Z,3.83
2017-08-03T00:40:52.416Z,4.23
2017-08-03T00:42:55.764Z,5.00
2017-08-03T00:44:59.862Z,4.07
2017-08-03T00:47:03.331Z,4.07
2017-08-03T00:49:06.616Z,3.43
2017-08-03T00:51:10.005Z,4.60
2017-08-03T00:53:13.428Z,3.93
2017-08-03T00:55:16.585Z,3.77
2017-08-03T00:57:19.985Z,4.10
2017-08-03T00:59:23.458Z,4.17
2017-08-03T01:01:27.051Z,3.57
2017-08-03T01:03:30.544Z,4.60
2017-08-03T01:05:33.951Z,3.97
2017-08-03T01:07:37.303Z,4.30
2017-08-03T01:09:40.797Z,4.40
2017-08-03T01:11:44.195Z,4.40
2017-08-03T01:13:48.335Z,5.10
2017-08-03T01:15:51.945Z,4.43
2017-08-03T01:17:55.277Z,4.07
2017-08-03T01:19:58.693Z,4.50
2017-08-03T01:22:02.239Z,4.23
2017-08-03T01:24:05.603Z,4.73
2017-08-03T01:26:08.870Z,3.80
2017-08-03T01:28:12.321Z,4.30
2017-08-03T01:30:15.662Z,4.07
2017-08-03T01:32:18.976Z,4.17
2017-08-03T01:34:22.445Z,4.23
2017-08-03T01:36:26.024Z,4.00
2017-08-03T01:38:29.346Z,3.83
2017-08-03T01:40:32.859Z,3.90
2017-08-03T01:42:36.214Z,4.33
2017-08-03T01:44:39.487Z,3.97
2017-08-03T01:46:47.125Z,3.93
2017-08-03T01:48:50.792Z,3.60
2017-08-03T01:50:54.343Z,3.67
2017-08-03T01:52:57.881Z,4.60
2017-08-03T01:55:01.770Z,3.80
2017-08-03T01:57:05.385Z,4.10
2017-08-03T01:59:08.666Z,4.00
2017-08-03T02:01:12.033Z,4.40
2017-08-03T02:03:15.088Z,3.80
2017-08-03T02:05:18.465Z,4.83
2017-08-03T02:07:22.133Z,3.93
2017-08-03T02:09:25.430Z,3.80
2017-08-03T02:11:28.784Z,4.20
2017-08-03T02:13:31.926Z,3.80
2017-08-03T02:15:35.128Z,3.57
2017-08-03T02:17:38.322Z,3.57
2017-08-03T02:19:41.672Z,3.93
2017-08-03T02:21:49.940Z,4.00
2017-08-03T02:23:53.537Z,4.17
2017-08-03T02:25:57.736Z,3.80
2017-08-03T02:28:01.090Z,3.67
2017-08-03T02:30:04.549Z,4.17
2017-08-03T02:32:07.865Z,4.43
2017-08-03T02:34:11.130Z,4.27
2017-08-03T02:36:14.615Z,4.17
2017-08-03T02:38:18.240Z,3.47
2017-08-03T02:40:22.168Z,4.10
2017-08-03T02:42:25.670Z,4.20
2017-08-03T02:44:29.072Z,3.90
2017-08-03T02:46:32.508Z,3.80
2017-08-03T02:48:35.947Z,3.93
2017-08-03T02:50:39.481Z,4.57
2017-08-03T02:52:42.868Z,4.80
2017-08-03T02:54:46.142Z,3.87
2017-08-03T02:56:50.224Z,4.63
2017-08-03T02:58:53.577Z,4.50
2017-08-03T03:00:56.691Z,4.00
2017-08-03T03:02:59.834Z,4.53
2017-08-03T03:05:03.016Z,3.93
2017-08-03T03:07:07.162Z,3.40
2017-08-03T03:09:10.638Z,3.43
2017-08-03T03:11:13.854Z,3.53
2017-08-03T03:13:17.044Z,3.70
2017-08-03T03:15:20.445Z,3.87
2017-08-03T03:17:24.044Z,3.50
2017-08-03T03:19:27.685Z,3.87
2017-08-03T03:21:31.079Z,3.70
2017-08-03T03:23:34.393Z,4.03
2017-08-03T03:25:37.872Z,3.53
2017-08-03T03:27:41.149Z,4.50
2017-08-03T03:29:44.476Z,3.73
2017-08-03T03:31:48.021Z,3.47
2017-08-03T03:33:51.875Z,3.70
2017-08-03T03:35:55.453Z,4.10
2017-08-03T03:37:58.959Z,4.00
2017-08-03T03:40:02.340Z,3.73
2017-08-03T03:42:05.605Z,3.63
2017-08-03T03:44:09.335Z,4.00
2017-08-03T03:46:28.407Z,3.50
2017-08-03T03:48:46.849Z,5.00
2017-08-03T03:51:05.157Z,3.83
2017-08-03T03:53:23.452Z,3.80
2017-08-03T03:55:41.913Z,3.73
2017-08-03T03:58:03.584Z,3.93
2017-08-03T04:00:21.942Z,4.67
2017-08-03T04:02:40.604Z,3.83
2017-08-03T04:04:59.297Z,3.87
2017-08-03T04:07:17.351Z,3.83
2017-08-03T04:09:35.815Z,4.47
2017-08-03T04:11:53.930Z,3.97
2017-08-03T04:14:12.146Z,4.20
2017-08-03T04:16:30.189Z,4.20
2017-08-03T04:18:48.411Z,3.80
2017-08-03T04:21:06.460Z,3.70
2017-08-03T04:23:24.514Z,3.60
2017-08-03T04:25:42.905Z,3.90
2017-08-03T04:28:01.218Z,4.47
2017-08-03T04:30:19.615Z,4.20
2017-08-03T04:32:38.021Z,4.47
2017-08-03T04:34:56.441Z,3.67
2017-08-03T04:37:14.465Z,3.43
2017-08-03T04:39:32.604Z,4.00
2017-08-03T04:41:51.816Z,4.63
2017-08-03T04:43:55.024Z,3.70
2017-08-03T04:45:58.157Z,4.20
2017-08-03T04:48:01.312Z,3.53
2017-08-03T04:50:04.669Z,4.47
2017-08-03T04:52:08.291Z,3.80
2017-08-03T04:54:11.378Z,4.13
2017-08-03T04:56:14.584Z,4.13
2017-08-03T04:58:17.712Z,3.83
2017-08-03T05:00:20.722Z,4.00
2017-08-03T05:02:23.718Z,4.07
2017-08-03T05:04:26.864Z,4.10
2017-08-03T05:06:30.237Z,4.50
2017-08-03T05:08:33.267Z,3.87
2017-08-03T05:10:36.535Z,4.20
2017-08-03T05:12:39.582Z,4.20
2017-08-03T05:14:43.480Z,4.10
2017-08-03T05:16:46.541Z,3.60
2017-08-03T05:18:49.845Z,3.73
2017-08-03T05:20:53.094Z,4.00
2017-08-03T05:22:56.568Z,4.13
2017-08-03T05:24:59.930Z,4.67
2017-08-03T05:27:02.968Z,5.00
2017-08-03T05:29:06.107Z,7.63
2017-08-03T05:31:09.124Z,6.20
2017-08-03T05:33:12.319Z,5.97
2017-08-03T05:35:15.470Z,6.60
2017-08-03T05:37:18.457Z,5.47
2017-08-03T05:39:21.571Z,6.87
2017-08-03T05:41:25.115Z,5.90
2017-08-03T05:43:28.249Z,5.00
2017-08-03T05:45:31.264Z,5.83
2017-08-03T05:47:35.566Z,6.27
2017-08-03T05:49:39.087Z,5.23
2017-08-03T05:51:42.515Z,6.10
2017-08-03T05:53:46.026Z,6.30
2017-08-03T05:55:49.009Z,6.60
2017-08-03T05:57:54.995Z,6.10
2017-08-03T05:59:58.066Z,4.70
2017-08-03T06:02:01.118Z,4.93
2017-08-03T06:04:04.191Z,6.13
2017-08-03T06:06:07.331Z,5.93
2017-08-03T06:08:10.459Z,5.17
2017-08-03T06:10:13.533Z,4.80
2017-08-03T06:12:17.315Z,4.93
2017-08-03T06:14:20.783Z,5.50
2017-08-03T06:16:23.826Z,4.00
2017-08-03T06:18:27.514Z,6.17
2017-08-03T06:20:30.579Z,4.80
2017-08-03T06:22:33.679Z,4.60
2017-08-03T06:24:37.142Z,5.90
2017-08-03T06:26:40.248Z,5.03
2017-08-03T06:28:43.384Z,5.40
2017-08-03T06:30:46.591Z,5.27
2017-08-03T06:32:49.711Z,4.37
2017-08-03T06:34:52.758Z,5.10
2017-08-03T06:36:55.871Z,5.10
2017-08-03T06:38:58.935Z,5.00
2017-08-03T06:41:02.029Z,4.57
2017-08-03T06:43:05.209Z,5.27
2017-08-03T06:45:08.243Z,4.90
2017-08-03T06:47:11.284Z,4.43
2017-08-03T06:49:15.069Z,5.07
2017-08-03T06:51:18.153Z,5.50
2017-08-03T06:53:21.581Z,5.00
2017-08-03T06:55:25.476Z,4.80
2017-08-03T06:57:28.759Z,4.57
2017-08-03T06:59:31.815Z,4.43
2017-08-03T07:01:35.356Z,4.53
2017-08-03T07:03:38.635Z,5.13
2017-08-03T07:05:41.843Z,4.83
2017-08-03T07:07:45.422Z,4.30
2017-08-03T07:09:48.419Z,4.10
2017-08-03T07:11:51.907Z,4.20
2017-08-03T07:13:57.765Z,4.37
2017-08-03T07:16:00.850Z,4.50
2017-08-03T07:18:04.676Z,4.80
2017-08-03T07:20:07.839Z,5.00
2017-08-03T07:22:10.900Z,3.57
2017-08-03T07:24:13.877Z,3.90
2017-08-03T07:26:16.940Z,4.60
2017-08-03T07:28:19.966Z,4.80
2017-08-03T07:30:23.064Z,4.17
2017-08-03T07:32:26.862Z,4.27
2017-08-03T07:34:29.982Z,4.50
2017-08-03T07:36:33.249Z,4.30
2017-08-03T07:38:36.918Z,5.27
2017-08-03T07:40:40.162Z,4.43
2017-08-03T07:42:43.181Z,4.83
2017-08-03T07:44:47.241Z,3.70
2017-08-03T07:46:50.590Z,4.53
2017-08-03T07:48:53.983Z,4.50
2017-08-03T07:50:57.358Z,4.97
2017-08-03T07:53:00.937Z,4.33
2017-08-03T07:55:04.107Z,4.20
2017-08-03T07:57:07.755Z,4.10
2017-08-03T07:59:10.992Z,5.20
2017-08-03T08:01:14.023Z,4.00
2017-08-03T08:03:17.439Z,4.00
2017-08-03T08:05:20.852Z,4.13
2017-08-03T08:07:24.304Z,4.10
2017-08-03T08:09:27.957Z,4.50
2017-08-03T08:11:30.956Z,4.03
2017-08-03T08:13:34.030Z,5.30
2017-08-03T08:15:37.618Z,3.90
2017-08-03T08:17:40.655Z,4.90
2017-08-03T08:19:43.680Z,4.27
2017-08-03T08:21:46.794Z,4.37
2017-08-03T08:23:49.870Z,3.60
2017-08-03T08:25:53.789Z,4.27
2017-08-03T08:27:58.700Z,4.40
2017-08-03T08:30:03.633Z,17.77
2017-08-03T08:32:15.062Z,14.43
2017-08-03T08:34:20.084Z,10.73
2017-08-03T08:36:23.168Z,11.40
2017-08-03T08:38:30.029Z,14.23
2017-08-03T08:40:33.585Z,24.30
2017-08-03T08:42:37.775Z,24.60
2017-08-03T08:44:40.799Z,22.63
2017-08-03T08:46:44.118Z,21.63
2017-08-03T08:48:47.234Z,21.37
2017-08-03T08:50:50.430Z,19.47
2017-08-03T08:52:55.469Z,22.30
2017-08-03T08:54:58.586Z,18.33
2017-08-03T08:57:03.127Z,18.90
2017-08-03T08:59:06.495Z,19.70
2017-08-03T09:01:09.479Z,18.80
2017-08-03T09:03:12.629Z,18.20
2017-08-03T09:05:19.747Z,17.43
2017-08-03T09:07:24.574Z,19.47
2017-08-03T09:09:30.782Z,18.27
2017-08-03T09:11:33.893Z,18.90
2017-08-03T09:13:38.682Z,18.07
2017-08-03T09:15:42.412Z,19.67
2017-08-03T09:17:47.857Z,18.17
2017-08-03T09:19:50.981Z,19.10
2017-08-03T09:21:59.946Z,21.30
2017-08-03T09:24:04.314Z,17.67
2017-08-03T09:26:08.999Z,12.80
2017-08-03T09:28:12.236Z,13.93
2017-08-03T09:30:15.299Z,12.80
2017-08-03T09:32:21.360Z,11.13
2017-08-03T09:34:28.061Z,12.47
2017-08-03T09:36:31.479Z,12.10
2017-08-03T09:38:38.038Z,11.47
2017-08-03T09:40:45.597Z,11.80
2017-08-03T09:42:49.198Z,12.37
2017-08-03T09:44:52.196Z,10.83
2017-08-03T09:47:18.162Z,11.23
2017-08-03T09:49:43.282Z,11.90
2017-08-03T09:52:05.715Z,11.13
2017-08-03T09:54:26.758Z,10.70
2017-08-03T09:56:48.532Z,9.60
2017-08-03T09:59:11.293Z,11.67
2017-08-03T10:01:32.625Z,9.73
2017-08-03T10:03:58.192Z,11.37
2017-08-03T10:06:20.261Z,9.50
2017-08-03T10:08:41.633Z,11.00
2017-08-03T10:11:07.182Z,10.53
2017-08-03T10:13:31.134Z,10.07
2017-08-03T10:15:56.971Z,10.67
2017-08-03T10:18:21.917Z,9.90
2017-08-03T10:20:41.346Z,10.70
2017-08-03T10:23:02.375Z,9.97
2017-08-03T10:25:20.590Z,8.37
2017-08-03T10:27:38.802Z,9.10
2017-08-03T10:29:56.846Z,8.83
2017-08-03T10:32:15.430Z,9.63
2017-08-03T10:34:33.645Z,10.83
2017-08-03T10:36:51.771Z,9.87
2017-08-03T10:39:10.021Z,8.87
2017-08-03T10:41:28.234Z,9.53
2017-08-03T10:43:46.375Z,9.90
2017-08-03T10:46:06.907Z,6.83
2017-08-03T10:48:25.183Z,9.30
2017-08-03T10:50:43.277Z,8.20
2017-08-03T10:53:01.577Z,8.27
2017-08-03T10:55:19.717Z,8.37
2017-08-03T10:57:37.791Z,8.27
2017-08-03T10:59:56.524Z,7.87
2017-08-03T11:02:14.743Z,7.60
2017-08-03T11:04:32.814Z,8.00
2017-08-03T11:06:51.170Z,8.40
2017-08-03T11:09:09.408Z,7.60
2017-08-03T11:11:27.496Z,8.97
2017-08-03T11:13:45.690Z,6.90
2017-08-03T11:16:03.833Z,7.80
2017-08-03T11:18:22.000Z,7.40
2017-08-03T11:20:40.595Z,7.07
2017-08-03T11:22:58.691Z,7.63
2017-08-03T11:25:16.794Z,8.20
2017-08-03T11:27:35.013Z,8.60
2017-08-03T11:29:48.207Z,8.00
2017-08-03T11:32:06.345Z,6.53
2017-08-03T11:34:24.557Z,7.00
2017-08-03T11:36:42.688Z,6.77
2017-08-03T11:39:00.725Z,6.00
2017-08-03T11:41:18.942Z,7.70
2017-08-03T11:43:37.096Z,6.50
2017-08-03T11:45:55.235Z,6.23
2017-08-03T11:48:13.991Z,6.77
2017-08-03T11:50:32.101Z,6.47
2017-08-03T11:52:50.404Z,6.90
2017-08-03T11:55:08.609Z,5.97
2017-08-03T11:57:26.753Z,5.13
2017-08-03T11:59:44.981Z,5.53
2017-08-03T12:02:03.577Z,7.77
2017-08-03T12:04:21.698Z,6.00
2017-08-03T12:06:39.813Z,5.63
2017-08-03T12:08:58.310Z,5.93
2017-08-03T12:11:16.405Z,5.77
2017-08-03T12:13:34.568Z,6.03
2017-08-03T12:15:53.428Z,5.77
2017-08-03T12:17:56.863Z,5.93
2017-08-03T12:20:00.177Z,5.50
2017-08-03T12:22:05.270Z,5.23
2017-08-03T12:24:08.360Z,5.30
2017-08-03T12:26:11.485Z,5.67
2017-08-03T12:28:14.929Z,5.90
2017-08-03T12:30:18.206Z,5.97
2017-08-03T12:32:21.445Z,5.80
2017-08-03T12:34:24.701Z,6.60
2017-08-03T12:36:27.862Z,5.60
2017-08-03T12:38:31.266Z,5.20
2017-08-03T12:40:34.842Z,4.83
2017-08-03T12:42:38.051Z,5.73
2017-08-03T12:44:41.121Z,5.80
2017-08-03T12:46:44.231Z,5.20
2017-08-03T12:48:47.486Z,5.30
2017-08-03T12:50:50.655Z,6.30
2017-08-03T12:52:54.046Z,6.40
2017-08-03T12:54:57.278Z,6.70
2017-08-03T12:57:00.455Z,5.27
2017-08-03T12:59:04.504Z,6.80
2017-08-03T13:01:07.944Z,6.77
2017-08-03T13:03:11.268Z,5.43
2017-08-03T13:05:14.600Z,6.10
2017-08-03T13:07:17.752Z,5.10
2017-08-03T13:09:20.937Z,5.47
2017-08-03T13:11:24.177Z,5.47
